sensor_id;sensor_type;location;lat;lon;timestamp;P1;durP1;ratioP1;P2;durP2;ratioP2
65896;SDS011;52677;50.898;10.854;2023-04-01T00:00:18;5.18;;;1.38;;
65896;SDS011;52677;50.898;10.854;2023-04-01T00:02:20;2.45;;;1.02;;
65896;SDS011;52677;50.898;10.854;2023-04-01T00:04:20;3.28;;;1.20;;
65896;SDS011;52677;50.898;10.854;2023-04-01T00:06:21;2.15;;;1.10;;
65896;SDS011;52677;50.898;10.854;2023-04-01T00:08:22;4.53;;;1.58;;
65896;SDS011;52677;50.898;10.854;2023-04-01T00:10:22;1.70;;;1.25;;
65896;SDS011;52677;50.898;10.854;2023-04-01T00:12:23;3.13;;;0.98;;
65896;SDS011;52677;50.898;10.854;2023-04-01T00:14:25;3.22;;;1.30;;
65896;SDS011;52677;50.898;10.854;2023-04-01T00:16:25;2.00;;;1.20;;
65896;SDS011;52677;50.898;10.854;2023-04-01T00:18:25;4.25;;;1.10;;
65896;SDS011;52677;50.898;10.854;2023-04-01T00:20:26;3.40;;;1.20;;
65896;SDS011;52677;50.898;10.854;2023-04-01T00:22:27;3.65;;;1.15;;
65896;SDS011;52677;50.898;10.854;2023-04-01T00:24:27;2.03;;;1.05;;
65896;SDS011;52677;50.898;10.854;2023-04-01T00:26:28;4.57;;;1.63;;
65896;SDS011;52677;50.898;10.854;2023-04-01T00:28:28;4.10;;;1.25;;
65896;SDS011;52677;50.898;10.854;2023-04-01T00:30:29;3.85;;;1.45;;
65896;SDS011;52677;50.898;10.854;2023-04-01T00:32:29;4.75;;;1.80;;
65896;SDS011;52677;50.898;10.854;2023-04-01T00:34:30;2.42;;;1.15;;
65896;SDS011;52677;50.898;10.854;2023-04-01T00:36:30;1.20;;;1.00;;
65896;SDS011;52677;50.898;10.854;2023-04-01T00:38:31;3.83;;;1.15;;
65896;SDS011;52677;50.898;10.854;2023-04-01T00:40:35;2.88;;;1.08;;
65896;SDS011;52677;50.898;10.854;2023-04-01T00:42:38;2.00;;;0.90;;
65896;SDS011;52677;50.898;10.854;2023-04-01T00:44:38;1.67;;;1.17;;
65896;SDS011;52677;50.898;10.854;2023-04-01T00:46:38;2.95;;;1.13;;
65896;SDS011;52677;50.898;10.854;2023-04-01T00:48:43;1.67;;;0.73;;
65896;SDS011;52677;50.898;10.854;2023-04-01T00:50:52;3.83;;;1.30;;
65896;SDS011;52677;50.898;10.854;2023-04-01T00:52:57;2.67;;;1.15;;
65896;SDS011;52677;50.898;10.854;2023-04-01T00:54:59;2.22;;;1.00;;
65896;SDS011;52677;50.898;10.854;2023-04-01T00:59:19;2.40;;;0.90;;
65896;SDS011;52677;50.898;10.854;2023-04-01T01:01:23;3.83;;;1.30;;
65896;SDS011;52677;50.898;10.854;2023-04-01T01:03:25;1.58;;;1.10;;
65896;SDS011;52677;50.898;10.854;2023-04-01T01:05:29;2.15;;;1.10;;
65896;SDS011;52677;50.898;10.854;2023-04-01T01:08:20;1.48;;;0.90;;
65896;SDS011;52677;50.898;10.854;2023-04-01T01:10:23;2.65;;;1.30;;
65896;SDS011;52677;50.898;10.854;2023-04-01T01:12:31;1.80;;;0.90;;
65896;SDS011;52677;50.898;10.854;2023-04-01T01:17:19;1.88;;;0.82;;
65896;SDS011;52677;50.898;10.854;2023-04-01T01:28:48;4.00;;;1.00;;
65896;SDS011;52677;50.898;10.854;2023-04-01T01:33:14;4.20;;;1.20;;
65896;SDS011;52677;50.898;10.854;2023-04-01T01:37:28;2.78;;;1.20;;
65896;SDS011;52677;50.898;10.854;2023-04-01T01:39:31;3.08;;;0.95;;
65896;SDS011;52677;50.898;10.854;2023-04-01T01:41:35;3.20;;;1.08;;
65896;SDS011;52677;50.898;10.854;2023-04-01T01:43:39;2.53;;;1.10;;
65896;SDS011;52677;50.898;10.854;2023-04-01T01:45:44;2.22;;;0.98;;
65896;SDS011;52677;50.898;10.854;2023-04-01T01:47:48;2.58;;;0.90;;
65896;SDS011;52677;50.898;10.854;2023-04-01T01:49:51;1.77;;;0.90;;
65896;SDS011;52677;50.898;10.854;2023-04-01T01:51:52;1.38;;;0.88;;
65896;SDS011;52677;50.898;10.854;2023-04-01T01:53:53;1.38;;;0.95;;
65896;SDS011;52677;50.898;10.854;2023-04-01T01:55:54;3.60;;;1.98;;
65896;SDS011;52677;50.898;10.854;2023-04-01T01:57:55;2.38;;;1.50;;
65896;SDS011;52677;50.898;10.854;2023-04-01T02:00:02;2.95;;;0.90;;
65896;SDS011;52677;50.898;10.854;2023-04-01T02:02:13;1.58;;;0.80;;
65896;SDS011;52677;50.898;10.854;2023-04-01T02:04:15;0.93;;;0.80;;
65896;SDS011;52677;50.898;10.854;2023-04-01T02:06:18;3.15;;;0.90;;
65896;SDS011;52677;50.898;10.854;2023-04-01T02:08:28;1.23;;;1.00;;
65896;SDS011;52677;50.898;10.854;2023-04-01T02:10:35;1.25;;;0.80;;
65896;SDS011;52677;50.898;10.854;2023-04-01T02:12:39;0.82;;;0.80;;
65896;SDS011;52677;50.898;10.854;2023-04-01T02:15:05;2.00;;;0.90;;
65896;SDS011;52677;50.898;10.854;2023-04-01T02:17:19;5.10;;;1.58;;
65896;SDS011;52677;50.898;10.854;2023-04-01T02:19:24;3.92;;;1.05;;
65896;SDS011;52677;50.898;10.854;2023-04-01T02:21:29;1.48;;;0.98;;
65896;SDS011;52677;50.898;10.854;2023-04-01T02:23:35;0.68;;;0.65;;
65896;SDS011;52677;50.898;10.854;2023-04-01T02:25:37;3.97;;;0.88;;
65896;SDS011;52677;50.898;10.854;2023-04-01T02:27:40;2.40;;;0.98;;
65896;SDS011;52677;50.898;10.854;2023-04-01T02:29:43;2.30;;;0.90;;
65896;SDS011;52677;50.898;10.854;2023-04-01T02:31:44;0.80;;;0.77;;
65896;SDS011;52677;50.898;10.854;2023-04-01T02:33:45;0.95;;;0.77;;
65896;SDS011;52677;50.898;10.854;2023-04-01T02:35:47;3.17;;;1.52;;
65896;SDS011;52677;50.898;10.854;2023-04-01T02:37:48;2.80;;;0.90;;
65896;SDS011;52677;50.898;10.854;2023-04-01T02:39:49;2.33;;;0.73;;
65896;SDS011;52677;50.898;10.854;2023-04-01T02:41:50;1.38;;;0.85;;
65896;SDS011;52677;50.898;10.854;2023-04-01T02:43:50;2.30;;;0.80;;
65896;SDS011;52677;50.898;10.854;2023-04-01T02:45:50;1.05;;;0.70;;
65896;SDS011;52677;50.898;10.854;2023-04-01T02:47:51;1.45;;;0.82;;
65896;SDS011;52677;50.898;10.854;2023-04-01T02:49:51;2.15;;;0.95;;
65896;SDS011;52677;50.898;10.854;2023-04-01T02:51:57;1.02;;;0.90;;
65896;SDS011;52677;50.898;10.854;2023-04-01T02:53:58;1.90;;;0.88;;
65896;SDS011;52677;50.898;10.854;2023-04-01T02:55:58;3.72;;;0.98;;
65896;SDS011;52677;50.898;10.854;2023-04-01T02:57:59;1.40;;;0.77;;
65896;SDS011;52677;50.898;10.854;2023-04-01T02:59:59;0.70;;;0.70;;
65896;SDS011;52677;50.898;10.854;2023-04-01T03:02:00;2.40;;;0.88;;
65896;SDS011;52677;50.898;10.854;2023-04-01T03:04:00;1.13;;;0.90;;
65896;SDS011;52677;50.898;10.854;2023-04-01T03:06:11;1.08;;;0.80;;
65896;SDS011;52677;50.898;10.854;2023-04-01T03:08:13;1.63;;;0.90;;
65896;SDS011;52677;50.898;10.854;2023-04-01T03:10:13;1.30;;;0.98;;
65896;SDS011;52677;50.898;10.854;2023-04-01T03:12:14;1.20;;;0.70;;
65896;SDS011;52677;50.898;10.854;2023-04-01T03:14:14;1.42;;;0.70;;
65896;SDS011;52677;50.898;10.854;2023-04-01T03:16:15;1.85;;;0.90;;
65896;SDS011;52677;50.898;10.854;2023-04-01T03:18:15;1.90;;;0.90;;
65896;SDS011;52677;50.898;10.854;2023-04-01T03:20:15;1.50;;;0.90;;
65896;SDS011;52677;50.898;10.854;2023-04-01T03:22:16;1.60;;;0.90;;
65896;SDS011;52677;50.898;10.854;2023-04-01T03:24:16;1.35;;;1.00;;
65896;SDS011;52677;50.898;10.854;2023-04-01T03:26:17;1.67;;;0.90;;
65896;SDS011;52677;50.898;10.854;2023-04-01T03:28:18;2.92;;;1.10;;
65896;SDS011;52677;50.898;10.854;2023-04-01T03:30:18;2.47;;;0.80;;
65896;SDS011;52677;50.898;10.854;2023-04-01T03:32:18;1.15;;;1.02;;
65896;SDS011;52677;50.898;10.854;2023-04-01T03:34:19;1.30;;;0.80;;
65896;SDS011;52677;50.898;10.854;2023-04-01T03:36:19;1.63;;;0.82;;
65896;SDS011;52677;50.898;10.854;2023-04-01T03:38:20;1.73;;;0.80;;
65896;SDS011;52677;50.898;10.854;2023-04-01T03:40:20;1.17;;;0.98;;
65896;SDS011;52677;50.898;10.854;2023-04-01T03:42:21;0.90;;;0.80;;
65896;SDS011;52677;50.898;10.854;2023-04-01T03:44:22;3.75;;;1.00;;
65896;SDS011;52677;50.898;10.854;2023-04-01T03:46:22;1.25;;;0.80;;
65896;SDS011;52677;50.898;10.854;2023-04-01T03:48:22;1.88;;;0.90;;
65896;SDS011;52677;50.898;10.854;2023-04-01T03:50:23;2.75;;;0.80;;
65896;SDS011;52677;50.898;10.854;2023-04-01T03:52:23;3.10;;;1.15;;
65896;SDS011;52677;50.898;10.854;2023-04-01T03:54:24;4.10;;;1.00;;
65896;SDS011;52677;50.898;10.854;2023-04-01T03:56:24;2.10;;;0.93;;
65896;SDS011;52677;50.898;10.854;2023-04-01T03:58:24;1.20;;;0.80;;
65896;SDS011;52677;50.898;10.854;2023-04-01T04:00:25;1.77;;;0.82;;
65896;SDS011;52677;50.898;10.854;2023-04-01T04:04:28;1.38;;;1.05;;
65896;SDS011;52677;50.898;10.854;2023-04-01T04:06:28;1.75;;;0.90;;
65896;SDS011;52677;50.898;10.854;2023-04-01T04:08:29;1.27;;;0.88;;
65896;SDS011;52677;50.898;10.854;2023-04-01T04:10:29;0.95;;;0.90;;
65896;SDS011;52677;50.898;10.854;2023-04-01T04:12:30;1.27;;;0.60;;
65896;SDS011;52677;50.898;10.854;2023-04-01T04:14:30;1.75;;;1.17;;
65896;SDS011;52677;50.898;10.854;2023-04-01T04:16:31;2.67;;;0.90;;
65896;SDS011;52677;50.898;10.854;2023-04-01T04:18:31;2.65;;;0.90;;
65896;SDS011;52677;50.898;10.854;2023-04-01T04:20:31;2.90;;;1.00;;
65896;SDS011;52677;50.898;10.854;2023-04-01T04:22:31;2.53;;;0.90;;
65896;SDS011;52677;50.898;10.854;2023-04-01T04:24:33;1.42;;;0.95;;
65896;SDS011;52677;50.898;10.854;2023-04-01T04:26:34;1.42;;;0.80;;
65896;SDS011;52677;50.898;10.854;2023-04-01T04:28:34;2.78;;;1.30;;
65896;SDS011;52677;50.898;10.854;2023-04-01T04:30:35;3.72;;;1.00;;
65896;SDS011;52677;50.898;10.854;2023-04-01T04:32:35;2.22;;;0.80;;
65896;SDS011;52677;50.898;10.854;2023-04-01T04:34:36;1.58;;;0.80;;
65896;SDS011;52677;50.898;10.854;2023-04-01T04:36:36;1.08;;;0.80;;
65896;SDS011;52677;50.898;10.854;2023-04-01T04:38:36;1.95;;;1.10;;
65896;SDS011;52677;50.898;10.854;2023-04-01T04:40:37;2.63;;;0.90;;
65896;SDS011;52677;50.898;10.854;2023-04-01T04:42:38;2.92;;;0.90;;
65896;SDS011;52677;50.898;10.854;2023-04-01T04:44:38;1.15;;;0.80;;
65896;SDS011;52677;50.898;10.854;2023-04-01T04:46:39;1.88;;;0.90;;
65896;SDS011;52677;50.898;10.854;2023-04-01T04:48:40;2.90;;;0.73;;
65896;SDS011;52677;50.898;10.854;2023-04-01T04:50:41;1.15;;;0.90;;
65896;SDS011;52677;50.898;10.854;2023-04-01T04:52:42;3.42;;;0.93;;
65896;SDS011;52677;50.898;10.854;2023-04-01T04:54:42;1.95;;;0.90;;
65896;SDS011;52677;50.898;10.854;2023-04-01T04:56:42;2.63;;;0.85;;
65896;SDS011;52677;50.898;10.854;2023-04-01T04:58:43;0.90;;;0.90;;
65896;SDS011;52677;50.898;10.854;2023-04-01T05:00:43;1.88;;;1.05;;
65896;SDS011;52677;50.898;10.854;2023-04-01T05:02:44;2.20;;;0.80;;
65896;SDS011;52677;50.898;10.854;2023-04-01T05:04:45;2.30;;;0.90;;
65896;SDS011;52677;50.898;10.854;2023-04-01T05:06:45;1.00;;;0.70;;
65896;SDS011;52677;50.898;10.854;2023-04-01T05:08:45;0.70;;;0.70;;
65896;SDS011;52677;50.898;10.854;2023-04-01T05:10:46;1.90;;;0.80;;
65896;SDS011;52677;50.898;10.854;2023-04-01T05:12:46;1.50;;;0.88;;
65896;SDS011;52677;50.898;10.854;2023-04-01T05:14:46;2.67;;;1.00;;
65896;SDS011;52677;50.898;10.854;2023-04-01T05:16:47;0.75;;;0.70;;
65896;SDS011;52677;50.898;10.854;2023-04-01T05:18:47;0.98;;;0.73;;
65896;SDS011;52677;50.898;10.854;2023-04-01T05:20:51;1.38;;;0.68;;
65896;SDS011;52677;50.898;10.854;2023-04-01T05:22:56;2.53;;;0.80;;
65896;SDS011;52677;50.898;10.854;2023-04-01T05:24:57;0.82;;;0.75;;
65896;SDS011;52677;50.898;10.854;2023-04-01T05:26:57;2.08;;;0.90;;
65896;SDS011;52677;50.898;10.854;2023-04-01T05:28:58;2.35;;;0.90;;
65896;SDS011;52677;50.898;10.854;2023-04-01T05:30:59;1.30;;;0.77;;
65896;SDS011;52677;50.898;10.854;2023-04-01T05:33:00;1.55;;;0.93;;
65896;SDS011;52677;50.898;10.854;2023-04-01T05:35:01;0.85;;;0.70;;
65896;SDS011;52677;50.898;10.854;2023-04-01T05:37:01;0.80;;;0.80;;
65896;SDS011;52677;50.898;10.854;2023-04-01T05:39:01;1.38;;;1.08;;
65896;SDS011;52677;50.898;10.854;2023-04-01T05:41:03;0.70;;;0.70;;
65896;SDS011;52677;50.898;10.854;2023-04-01T05:43:03;1.98;;;0.90;;
65896;SDS011;52677;50.898;10.854;2023-04-01T05:45:04;1.45;;;0.80;;
65896;SDS011;52677;50.898;10.854;2023-04-01T05:47:05;1.10;;;0.70;;
65896;SDS011;52677;50.898;10.854;2023-04-01T05:49:05;0.95;;;0.77;;
65896;SDS011;52677;50.898;10.854;2023-04-01T05:51:05;1.20;;;0.73;;
65896;SDS011;52677;50.898;10.854;2023-04-01T05:53:06;2.65;;;0.90;;
65896;SDS011;52677;50.898;10.854;2023-04-01T05:55:06;2.45;;;0.80;;
65896;SDS011;52677;50.898;10.854;2023-04-01T05:57:07;1.95;;;0.75;;
65896;SDS011;52677;50.898;10.854;2023-04-01T05:59:09;1.25;;;0.70;;
65896;SDS011;52677;50.898;10.854;2023-04-01T06:01:10;1.75;;;1.00;;
65896;SDS011;52677;50.898;10.854;2023-04-01T06:03:11;2.97;;;1.50;;
65896;SDS011;52677;50.898;10.854;2023-04-01T06:05:13;3.33;;;1.55;;
65896;SDS011;52677;50.898;10.854;2023-04-01T06:07:17;2.15;;;0.90;;
65896;SDS011;52677;50.898;10.854;2023-04-01T06:09:19;1.70;;;0.90;;
65896;SDS011;52677;50.898;10.854;2023-04-01T06:13:42;1.25;;;0.70;;
65896;SDS011;52677;50.898;10.854;2023-04-01T06:16:26;2.38;;;1.02;;
65896;SDS011;52677;50.898;10.854;2023-04-01T06:18:42;1.83;;;0.63;;
65896;SDS011;52677;50.898;10.854;2023-04-01T06:27:41;1.02;;;0.70;;
65896;SDS011;52677;50.898;10.854;2023-04-01T06:29:58;0.68;;;0.60;;
65896;SDS011;52677;50.898;10.854;2023-04-01T06:39:13;2.75;;;0.75;;
65896;SDS011;52677;50.898;10.854;2023-04-01T06:41:32;1.38;;;0.90;;
65896;SDS011;52677;50.898;10.854;2023-04-01T06:50:11;1.30;;;0.63;;
65896;SDS011;52677;50.898;10.854;2023-04-01T06:52:36;1.75;;;0.70;;
65896;SDS011;52677;50.898;10.854;2023-04-01T06:54:58;1.73;;;0.65;;
65896;SDS011;52677;50.898;10.854;2023-04-01T06:57:05;0.80;;;0.80;;
65896;SDS011;52677;50.898;10.854;2023-04-01T06:59:22;0.63;;;0.63;;
65896;SDS011;52677;50.898;10.854;2023-04-01T07:01:29;3.50;;;1.05;;
65896;SDS011;52677;50.898;10.854;2023-04-01T07:03:41;3.58;;;0.73;;
65896;SDS011;52677;50.898;10.854;2023-04-01T07:05:47;1.17;;;0.60;;
65896;SDS011;52677;50.898;10.854;2023-04-01T07:07:48;1.25;;;0.77;;
65896;SDS011;52677;50.898;10.854;2023-04-01T07:09:54;1.85;;;0.63;;
65896;SDS011;52677;50.898;10.854;2023-04-01T07:12:02;0.70;;;0.70;;
65896;SDS011;52677;50.898;10.854;2023-04-01T07:14:19;1.55;;;0.73;;
65896;SDS011;52677;50.898;10.854;2023-04-01T07:16:27;1.45;;;0.80;;
65896;SDS011;52677;50.898;10.854;2023-04-01T07:18:36;1.95;;;0.63;;
65896;SDS011;52677;50.898;10.854;2023-04-01T07:20:42;2.13;;;0.90;;
65896;SDS011;52677;50.898;10.854;2023-04-01T07:22:44;2.42;;;0.80;;
65896;SDS011;52677;50.898;10.854;2023-04-01T07:24:46;2.42;;;0.80;;
65896;SDS011;52677;50.898;10.854;2023-04-01T07:26:48;4.32;;;0.70;;
65896;SDS011;52677;50.898;10.854;2023-04-01T07:28:52;1.73;;;0.80;;
65896;SDS011;52677;50.898;10.854;2023-04-01T07:33:04;0.85;;;0.77;;
65896;SDS011;52677;50.898;10.854;2023-04-01T07:44:58;2.95;;;0.73;;
65896;SDS011;52677;50.898;10.854;2023-04-01T07:49:28;1.20;;;0.70;;
65896;SDS011;52677;50.898;10.854;2023-04-01T07:51:48;2.47;;;0.80;;
65896;SDS011;52677;50.898;10.854;2023-04-01T07:56:11;1.52;;;0.50;;
65896;SDS011;52677;50.898;10.854;2023-04-01T07:58:25;0.85;;;0.77;;
65896;SDS011;52677;50.898;10.854;2023-04-01T08:00:48;0.90;;;0.70;;
65896;SDS011;52677;50.898;10.854;2023-04-01T08:03:03;2.60;;;0.77;;
65896;SDS011;52677;50.898;10.854;2023-04-01T08:05:14;0.70;;;0.70;;
65896;SDS011;52677;50.898;10.854;2023-04-01T08:07:32;1.15;;;0.70;;
65896;SDS011;52677;50.898;10.854;2023-04-01T08:17:03;1.20;;;0.70;;
65896;SDS011;52677;50.898;10.854;2023-04-01T08:21:38;1.40;;;0.55;;
65896;SDS011;52677;50.898;10.854;2023-04-01T08:23:48;2.15;;;0.70;;
65896;SDS011;52677;50.898;10.854;2023-04-01T08:26:04;2.08;;;0.80;;
65896;SDS011;52677;50.898;10.854;2023-04-01T08:28:54;1.02;;;0.60;;
65896;SDS011;52677;50.898;10.854;2023-04-01T08:30:53;1.17;;;0.95;;
65896;SDS011;52677;50.898;10.854;2023-04-01T08:37:39;1.65;;;0.80;;
65896;SDS011;52677;50.898;10.854;2023-04-01T08:39:42;0.80;;;0.60;;
65896;SDS011;52677;50.898;10.854;2023-04-01T08:46:29;1.35;;;0.70;;
65896;SDS011;52677;50.898;10.854;2023-04-01T08:51:25;2.05;;;0.60;;
65896;SDS011;52677;50.898;10.854;2023-04-01T08:56:03;1.52;;;0.73;;
65896;SDS011;52677;50.898;10.854;2023-04-01T08:58:23;0.98;;;0.60;;
65896;SDS011;52677;50.898;10.854;2023-04-01T09:19:22;2.63;;;1.20;;
65896;SDS011;52677;50.898;10.854;2023-04-01T09:21:54;2.50;;;1.38;;
65896;SDS011;52677;50.898;10.854;2023-04-01T09:33:47;3.80;;;1.88;;
65896;SDS011;52677;50.898;10.854;2023-04-01T09:45:35;6.55;;;2.13;;
65896;SDS011;52677;50.898;10.854;2023-04-01T10:01:48;1.95;;;0.93;;
65896;SDS011;52677;50.898;10.854;2023-04-01T10:13:11;2.60;;;1.58;;
65896;SDS011;52677;50.898;10.854;2023-04-01T10:25:45;3.13;;;0.90;;
65896;SDS011;52677;50.898;10.854;2023-04-01T10:28:59;0.50;;;0.50;;
65896;SDS011;52677;50.898;10.854;2023-04-01T10:30:50;3.38;;;1.27;;
65896;SDS011;52677;50.898;10.854;2023-04-01T10:43:09;3.63;;;1.73;;
65896;SDS011;52677;50.898;10.854;2023-04-01T10:45:35;2.13;;;0.98;;
65896;SDS011;52677;50.898;10.854;2023-04-01T11:00:02;4.00;;;1.33;;
65896;SDS011;52677;50.898;10.854;2023-04-01T11:15:06;1.08;;;0.80;;
65896;SDS011;52677;50.898;10.854;2023-04-01T11:17:42;1.15;;;0.70;;
65896;SDS011;52677;50.898;10.854;2023-04-01T11:33:44;0.70;;;0.70;;
65896;SDS011;52677;50.898;10.854;2023-04-01T11:43:38;1.95;;;1.20;;
65896;SDS011;52677;50.898;10.854;2023-04-01T11:46:00;1.98;;;1.65;;
65896;SDS011;52677;50.898;10.854;2023-04-01T11:54:49;1.23;;;1.00;;
65896;SDS011;52677;50.898;10.854;2023-04-01T12:04:45;1.67;;;0.82;;
65896;SDS011;52677;50.898;10.854;2023-04-01T12:07:21;1.45;;;0.80;;
65896;SDS011;52677;50.898;10.854;2023-04-01T12:12:03;1.02;;;0.50;;
65896;SDS011;52677;50.898;10.854;2023-04-01T12:14:27;2.08;;;1.40;;
65896;SDS011;52677;50.898;10.854;2023-04-01T12:19:09;1.02;;;0.60;;
65896;SDS011;52677;50.898;10.854;2023-04-01T12:26:06;1.45;;;1.10;;
65896;SDS011;52677;50.898;10.854;2023-04-01T12:28:40;1.25;;;0.70;;
65896;SDS011;52677;50.898;10.854;2023-04-01T12:30:59;1.33;;;0.93;;
65896;SDS011;52677;50.898;10.854;2023-04-01T12:38:31;2.85;;;1.10;;
65896;SDS011;52677;50.898;10.854;2023-04-01T12:40:49;1.17;;;1.08;;
65896;SDS011;52677;50.898;10.854;2023-04-01T12:47:39;2.90;;;1.30;;
65896;SDS011;52677;50.898;10.854;2023-04-01T12:50:06;1.65;;;1.08;;
65896;SDS011;52677;50.898;10.854;2023-04-01T12:52:46;0.73;;;0.50;;
65896;SDS011;52677;50.898;10.854;2023-04-01T12:54:56;2.65;;;1.90;;
65896;SDS011;52677;50.898;10.854;2023-04-01T12:57:14;1.70;;;1.35;;
65896;SDS011;52677;50.898;10.854;2023-04-01T13:01:45;0.77;;;0.75;;
65896;SDS011;52677;50.898;10.854;2023-04-01T13:11:03;1.50;;;0.90;;
65896;SDS011;52677;50.898;10.854;2023-04-01T13:29:38;1.25;;;1.08;;
65896;SDS011;52677;50.898;10.854;2023-04-01T13:36:15;2.08;;;1.20;;
65896;SDS011;52677;50.898;10.854;2023-04-01T13:41:05;3.10;;;1.58;;
65896;SDS011;52677;50.898;10.854;2023-04-01T13:43:19;2.58;;;1.65;;
65896;SDS011;52677;50.898;10.854;2023-04-01T14:04:47;13.57;;;6.32;;
65896;SDS011;52677;50.898;10.854;2023-04-01T14:26:09;3.20;;;1.50;;
65896;SDS011;52677;50.898;10.854;2023-04-01T14:30:29;3.90;;;2.40;;
65896;SDS011;52677;50.898;10.854;2023-04-01T14:39:57;2.47;;;1.55;;
65896;SDS011;52677;50.898;10.854;2023-04-01T14:48:54;2.33;;;1.50;;
65896;SDS011;52677;50.898;10.854;2023-04-01T14:51:02;1.60;;;1.10;;
65896;SDS011;52677;50.898;10.854;2023-04-01T14:55:27;3.20;;;2.30;;
65896;SDS011;52677;50.898;10.854;2023-04-01T14:57:31;2.42;;;1.73;;
65896;SDS011;52677;50.898;10.854;2023-04-01T14:59:31;2.70;;;1.60;;
65896;SDS011;52677;50.898;10.854;2023-04-01T15:02:24;1.83;;;1.30;;
65896;SDS011;52677;50.898;10.854;2023-04-01T15:08:37;4.03;;;1.50;;
65896;SDS011;52677;50.898;10.854;2023-04-01T15:17:58;2.28;;;1.60;;
65896;SDS011;52677;50.898;10.854;2023-04-01T15:22:39;1.92;;;1.42;;
65896;SDS011;52677;50.898;10.854;2023-04-01T15:38:56;3.30;;;1.83;;
65896;SDS011;52677;50.898;10.854;2023-04-01T15:43:15;1.50;;;1.05;;
65896;SDS011;52677;50.898;10.854;2023-04-01T15:45:31;1.33;;;1.00;;
65896;SDS011;52677;50.898;10.854;2023-04-01T15:47:42;2.03;;;0.98;;
65896;SDS011;52677;50.898;10.854;2023-04-01T15:49:47;0.65;;;0.57;;
65896;SDS011;52677;50.898;10.854;2023-04-01T15:52:10;3.75;;;0.93;;
65896;SDS011;52677;50.898;10.854;2023-04-01T15:59:01;0.85;;;0.77;;
65896;SDS011;52677;50.898;10.854;2023-04-01T16:03:43;3.33;;;1.60;;
65896;SDS011;52677;50.898;10.854;2023-04-01T16:06:17;13.52;;;5.22;;
65896;SDS011;52677;50.898;10.854;2023-04-01T16:08:40;15.85;;;5.07;;
65896;SDS011;52677;50.898;10.854;2023-04-01T16:24:45;10.30;;;5.07;;
65896;SDS011;52677;50.898;10.854;2023-04-01T16:26:55;9.65;;;4.35;;
65896;SDS011;52677;50.898;10.854;2023-04-01T16:34:01;7.20;;;3.97;;
65896;SDS011;52677;50.898;10.854;2023-04-01T16:36:10;6.32;;;2.80;;
65896;SDS011;52677;50.898;10.854;2023-04-01T16:38:24;5.80;;;3.47;;
65896;SDS011;52677;50.898;10.854;2023-04-01T16:42:43;6.05;;;3.38;;
65896;SDS011;52677;50.898;10.854;2023-04-01T16:47:08;4.43;;;2.40;;
65896;SDS011;52677;50.898;10.854;2023-04-01T16:51:33;5.28;;;2.85;;
65896;SDS011;52677;50.898;10.854;2023-04-01T16:53:41;3.88;;;2.60;;
65896;SDS011;52677;50.898;10.854;2023-04-01T16:55:48;12.45;;;5.95;;
65896;SDS011;52677;50.898;10.854;2023-04-01T16:57:56;4.15;;;2.45;;
65896;SDS011;52677;50.898;10.854;2023-04-01T17:00:09;2.92;;;2.05;;
65896;SDS011;52677;50.898;10.854;2023-04-01T17:02:17;3.20;;;2.10;;
65896;SDS011;52677;50.898;10.854;2023-04-01T17:04:26;2.60;;;1.50;;
65896;SDS011;52677;50.898;10.854;2023-04-01T17:06:37;2.17;;;1.30;;
65896;SDS011;52677;50.898;10.854;2023-04-01T17:11:27;2.22;;;1.58;;
65896;SDS011;52677;50.898;10.854;2023-04-01T17:13:35;2.50;;;1.33;;
65896;SDS011;52677;50.898;10.854;2023-04-01T17:20:46;7.78;;;2.53;;
65896;SDS011;52677;50.898;10.854;2023-04-01T17:25:29;6.78;;;2.50;;
65896;SDS011;52677;50.898;10.854;2023-04-01T17:36:16;6.18;;;3.58;;
65896;SDS011;52677;50.898;10.854;2023-04-01T17:45:56;7.60;;;4.05;;
65896;SDS011;52677;50.898;10.854;2023-04-01T17:48:02;3.55;;;2.70;;
65896;SDS011;52677;50.898;10.854;2023-04-01T17:50:23;3.47;;;2.13;;
65896;SDS011;52677;50.898;10.854;2023-04-01T17:52:39;3.22;;;2.08;;
65896;SDS011;52677;50.898;10.854;2023-04-01T17:59:49;4.65;;;1.67;;
65896;SDS011;52677;50.898;10.854;2023-04-01T18:01:57;6.68;;;1.67;;
65896;SDS011;52677;50.898;10.854;2023-04-01T18:07:09;3.15;;;1.52;;
65896;SDS011;52677;50.898;10.854;2023-04-01T18:12:21;4.30;;;3.00;;
65896;SDS011;52677;50.898;10.854;2023-04-01T18:14:49;6.38;;;3.78;;
65896;SDS011;52677;50.898;10.854;2023-04-01T18:22:33;5.68;;;3.67;;
65896;SDS011;52677;50.898;10.854;2023-04-01T18:24:42;6.03;;;3.80;;
65896;SDS011;52677;50.898;10.854;2023-04-01T18:26:48;6.78;;;4.30;;
65896;SDS011;52677;50.898;10.854;2023-04-01T18:31:18;3.97;;;3.00;;
65896;SDS011;52677;50.898;10.854;2023-04-01T18:33:29;3.53;;;2.50;;
65896;SDS011;52677;50.898;10.854;2023-04-01T18:38:14;4.03;;;2.22;;
65896;SDS011;52677;50.898;10.854;2023-04-01T18:40:23;3.63;;;2.35;;
65896;SDS011;52677;50.898;10.854;2023-04-01T18:42:45;6.22;;;3.00;;
65896;SDS011;52677;50.898;10.854;2023-04-01T18:44:56;6.20;;;3.13;;
65896;SDS011;52677;50.898;10.854;2023-04-01T18:51:44;5.18;;;4.07;;
65896;SDS011;52677;50.898;10.854;2023-04-01T18:57:55;9.38;;;5.40;;
65896;SDS011;52677;50.898;10.854;2023-04-01T19:04:33;10.65;;;5.50;;
65896;SDS011;52677;50.898;10.854;2023-04-01T19:06:50;9.38;;;4.78;;
65896;SDS011;52677;50.898;10.854;2023-04-01T19:08:54;7.55;;;4.38;;
65896;SDS011;52677;50.898;10.854;2023-04-01T19:10:57;8.55;;;4.95;;
65896;SDS011;52677;50.898;10.854;2023-04-01T19:20:47;7.45;;;5.70;;
65896;SDS011;52677;50.898;10.854;2023-04-01T19:23:49;6.18;;;5.03;;
65896;SDS011;52677;50.898;10.854;2023-04-01T19:26:00;7.47;;;4.68;;
65896;SDS011;52677;50.898;10.854;2023-04-01T19:28:22;7.50;;;5.40;;
65896;SDS011;52677;50.898;10.854;2023-04-01T19:42:14;12.98;;;6.55;;
65896;SDS011;52677;50.898;10.854;2023-04-01T19:46:40;10.80;;;6.13;;
65896;SDS011;52677;50.898;10.854;2023-04-01T19:51:13;6.65;;;4.50;;
65896;SDS011;52677;50.898;10.854;2023-04-01T19:56:11;7.28;;;3.80;;
65896;SDS011;52677;50.898;10.854;2023-04-01T19:58:32;5.07;;;3.30;;
65896;SDS011;52677;50.898;10.854;2023-04-01T20:04:51;4.60;;;3.47;;
65896;SDS011;52677;50.898;10.854;2023-04-01T20:19:27;4.68;;;3.30;;
65896;SDS011;52677;50.898;10.854;2023-04-01T20:21:40;4.68;;;3.33;;
65896;SDS011;52677;50.898;10.854;2023-04-01T20:23:53;5.13;;;3.30;;
65896;SDS011;52677;50.898;10.854;2023-04-01T20:26:02;4.15;;;3.10;;
65896;SDS011;52677;50.898;10.854;2023-04-01T20:28:19;4.57;;;2.90;;
65896;SDS011;52677;50.898;10.854;2023-04-01T20:30:27;5.75;;;4.00;;
65896;SDS011;52677;50.898;10.854;2023-04-01T20:39:31;4.97;;;3.50;;
65896;SDS011;52677;50.898;10.854;2023-04-01T20:45:01;5.40;;;3.78;;
65896;SDS011;52677;50.898;10.854;2023-04-01T20:51:30;3.28;;;2.60;;
65896;SDS011;52677;50.898;10.854;2023-04-01T20:53:50;3.22;;;2.42;;
65896;SDS011;52677;50.898;10.854;2023-04-01T21:17:04;3.47;;;2.70;;
65896;SDS011;52677;50.898;10.854;2023-04-01T21:26:31;8.20;;;6.82;;
65896;SDS011;52677;50.898;10.854;2023-04-01T21:54:41;3.65;;;2.60;;
65896;SDS011;52677;50.898;10.854;2023-04-01T21:57:12;4.85;;;3.08;;
65896;SDS011;52677;50.898;10.854;2023-04-01T22:06:42;2.58;;;1.95;;
65896;SDS011;52677;50.898;10.854;2023-04-01T22:11:24;3.05;;;2.15;;
65896;SDS011;52677;50.898;10.854;2023-04-01T22:13:46;2.63;;;1.92;;
65896;SDS011;52677;50.898;10.854;2023-04-01T22:18:21;2.78;;;1.92;;
65896;SDS011;52677;50.898;10.854;2023-04-01T22:20:27;3.45;;;2.08;;
65896;SDS011;52677;50.898;10.854;2023-04-01T22:25:31;2.47;;;2.08;;